Troviken — C6ZT9 — position and weather

sailwx.info

Track history (hours):
 
Tides and Currents Weather Stations Pressure Air Temp Water Temp Dewpoint Dewpoint Depression Visibility Wind Speed Wind Dir Waves Ship Positions

Troviken

Last reported at 2017-Mar-07 09:33 UTC. Time now 2017-Apr-23 11:58 UTC.
Position N 29°54' W 093°21'.
Warning: this ship's position is 47 days out of date.

Length 250 m; draft 8.5 m.

Type: Tanker. MMSI: 311066200.

Date/timePositionNaut miles runAvg speedWind from/ knotsBaromVisibWave heightAir tempDewpointWater temp
2017-Mar-07 09:33N 29°54' W 093°21'7 7.1
2017-Mar-07 08:33N 30°02' W 093°20'6 6.4
2017-Mar-07 07:33N 30°08' W 093°20'2 1.6
2017-Mar-07 06:33N 30°10' W 093°20'0 0.0
2017-Mar-07 05:33N 30°10' W 093°20'0 0.0
2017-Mar-07 04:33N 30°10' W 093°20'0 0.0
2017-Mar-07 03:33N 30°10' W 093°20'0 0.0
2017-Mar-07 02:33N 30°10' W 093°20'0 0.0
2017-Mar-07 01:33N 30°10' W 093°20'0 0.0
2017-Mar-07 00:33N 30°10' W 093°20'0 0.0
2017-Mar-06 23:33N 30°10' W 093°20'0 0.0
2017-Mar-06 22:33N 30°10' W 093°20'0 0.0
2017-Mar-06 21:33N 30°10' W 093°20'0 0.0
2017-Mar-06 20:33N 30°10' W 093°20'0 0.0
2017-Mar-05 20:31N 30°10' W 093°20'4 3.8
2017-Mar-05 19:34N 30°06' W 093°20'6 6.2
2017-Mar-05 18:33N 29°60' W 093°20'7 7.1
2017-Mar-05 17:33N 29°53' W 093°21'9 9.1
2017-Mar-05 16:33N 29°43' W 093°20'  
2017-Feb-28 15:33N 29°15' W 093°14'  
Track history (hours):
 
Tides and Currents Weather Stations Pressure Air Temp Water Temp Dewpoint Dewpoint Depression Visibility Wind Speed Wind Dir Waves Ship Positions

Troviken

Last reported at 2017-Mar-07 09:33 UTC. Time now 2017-Apr-23 11:58 UTC.
Position N 29°54' W 093°21'.
Warning: this ship's position is 47 days out of date.

Length 250 m; draft 8.5 m.

Type: Tanker. MMSI: 311066200.

Date/timePositionNaut miles runAvg speedWind from/ knotsBaromVisibWave heightAir tempDewpointWater temp
2017-Mar-07 09:33N 29°54' W 093°21'7 7.1
2017-Mar-07 08:33N 30°02' W 093°20'6 6.4
2017-Mar-07 07:33N 30°08' W 093°20'2 1.6
2017-Mar-07 06:33N 30°10' W 093°20'0 0.0
2017-Mar-07 05:33N 30°10' W 093°20'0 0.0
2017-Mar-07 04:33N 30°10' W 093°20'0 0.0
2017-Mar-07 03:33N 30°10' W 093°20'0 0.0
2017-Mar-07 02:33N 30°10' W 093°20'0 0.0
2017-Mar-07 01:33N 30°10' W 093°20'0 0.0
2017-Mar-07 00:33N 30°10' W 093°20'0 0.0
2017-Mar-06 23:33N 30°10' W 093°20'0 0.0
2017-Mar-06 22:33N 30°10' W 093°20'0 0.0
2017-Mar-06 21:33N 30°10' W 093°20'0 0.0
2017-Mar-06 20:33N 30°10' W 093°20'0 0.0
2017-Mar-05 20:31N 30°10' W 093°20'4 3.8
2017-Mar-05 19:34N 30°06' W 093°20'6 6.2
2017-Mar-05 18:33N 29°60' W 093°20'7 7.1
2017-Mar-05 17:33N 29°53' W 093°21'9 9.1
2017-Mar-05 16:33N 29°43' W 093°20'  
2017-Feb-28 15:33N 29°15' W 093°14'  

Dump ship's entire track history